sensor_id;sensor_type;location;lat;lon;timestamp;P1;durP1;ratioP1;P2;durP2;ratioP2
73599;SDS011;61877;48.246;9.220;2023-09-07T00:01:06;9.50;;;4.20;;
73599;SDS011;61877;48.246;9.220;2023-09-07T00:03:32;9.45;;;4.88;;
73599;SDS011;61877;48.246;9.220;2023-09-07T00:05:57;9.53;;;4.60;;
73599;SDS011;61877;48.246;9.220;2023-09-07T00:08:23;9.70;;;4.43;;
73599;SDS011;61877;48.246;9.220;2023-09-07T00:10:48;9.55;;;4.60;;
73599;SDS011;61877;48.246;9.220;2023-09-07T00:13:14;10.90;;;4.77;;
73599;SDS011;61877;48.246;9.220;2023-09-07T00:15:39;9.53;;;4.47;;
73599;SDS011;61877;48.246;9.220;2023-09-07T00:18:09;9.47;;;4.83;;
73599;SDS011;61877;48.246;9.220;2023-09-07T00:20:34;9.27;;;4.80;;
73599;SDS011;61877;48.246;9.220;2023-09-07T00:23:00;10.32;;;4.93;;
73599;SDS011;61877;48.246;9.220;2023-09-07T00:25:25;9.43;;;4.53;;
73599;SDS011;61877;48.246;9.220;2023-09-07T00:27:51;10.23;;;4.37;;
73599;SDS011;61877;48.246;9.220;2023-09-07T00:30:16;9.37;;;4.10;;
73599;SDS011;61877;48.246;9.220;2023-09-07T00:32:42;8.45;;;4.18;;
73599;SDS011;61877;48.246;9.220;2023-09-07T00:35:10;10.87;;;4.43;;
73599;SDS011;61877;48.246;9.220;2023-09-07T00:37:36;8.80;;;4.45;;
73599;SDS011;61877;48.246;9.220;2023-09-07T00:40:02;8.32;;;4.10;;
73599;SDS011;61877;48.246;9.220;2023-09-07T00:42:28;9.40;;;4.30;;
73599;SDS011;61877;48.246;9.220;2023-09-07T00:44:53;9.90;;;4.37;;
73599;SDS011;61877;48.246;9.220;2023-09-07T00:47:19;11.13;;;4.47;;
73599;SDS011;61877;48.246;9.220;2023-09-07T00:49:44;9.43;;;4.67;;
73599;SDS011;61877;48.246;9.220;2023-09-07T00:52:12;8.60;;;4.18;;
73599;SDS011;61877;48.246;9.220;2023-09-07T00:54:37;8.90;;;4.10;;
73599;SDS011;61877;48.246;9.220;2023-09-07T00:57:04;11.17;;;4.00;;
73599;SDS011;61877;48.246;9.220;2023-09-07T00:59:29;7.95;;;3.90;;
73599;SDS011;61877;48.246;9.220;2023-09-07T01:01:55;8.88;;;4.00;;
73599;SDS011;61877;48.246;9.220;2023-09-07T01:04:20;8.50;;;4.10;;
73599;SDS011;61877;48.246;9.220;2023-09-07T01:06:47;8.30;;;4.03;;
73599;SDS011;61877;48.246;9.220;2023-09-07T01:09:22;9.65;;;4.10;;
73599;SDS011;61877;48.246;9.220;2023-09-07T01:11:50;8.23;;;3.90;;
73599;SDS011;61877;48.246;9.220;2023-09-07T01:14:18;8.47;;;3.93;;
73599;SDS011;61877;48.246;9.220;2023-09-07T01:16:44;9.93;;;4.45;;
73599;SDS011;61877;48.246;9.220;2023-09-07T01:19:11;8.47;;;4.07;;
73599;SDS011;61877;48.246;9.220;2023-09-07T01:21:39;9.60;;;4.10;;
73599;SDS011;61877;48.246;9.220;2023-09-07T01:24:06;10.00;;;4.60;;
73599;SDS011;61877;48.246;9.220;2023-09-07T01:26:33;9.50;;;4.40;;
73599;SDS011;61877;48.246;9.220;2023-09-07T01:28:58;8.53;;;4.03;;
73599;SDS011;61877;48.246;9.220;2023-09-07T01:31:25;9.45;;;3.90;;
73599;SDS011;61877;48.246;9.220;2023-09-07T01:33:50;9.20;;;3.92;;
73599;SDS011;61877;48.246;9.220;2023-09-07T01:36:16;8.70;;;4.00;;
73599;SDS011;61877;48.246;9.220;2023-09-07T01:38:42;8.23;;;3.97;;
73599;SDS011;61877;48.246;9.220;2023-09-07T01:41:08;8.30;;;3.90;;
73599;SDS011;61877;48.246;9.220;2023-09-07T01:43:35;8.40;;;4.07;;
73599;SDS011;61877;48.246;9.220;2023-09-07T01:46:02;9.73;;;4.10;;
73599;SDS011;61877;48.246;9.220;2023-09-07T01:48:27;9.60;;;4.20;;
73599;SDS011;61877;48.246;9.220;2023-09-07T01:50:53;9.37;;;3.97;;
73599;SDS011;61877;48.246;9.220;2023-09-07T01:53:20;8.60;;;3.88;;
73599;SDS011;61877;48.246;9.220;2023-09-07T01:55:47;8.98;;;4.30;;
73599;SDS011;61877;48.246;9.220;2023-09-07T01:58:12;8.93;;;4.30;;
73599;SDS011;61877;48.246;9.220;2023-09-07T02:00:37;8.83;;;4.20;;
73599;SDS011;61877;48.246;9.220;2023-09-07T02:03:03;11.17;;;4.73;;
73599;SDS011;61877;48.246;9.220;2023-09-07T02:05:29;11.93;;;4.50;;
73599;SDS011;61877;48.246;9.220;2023-09-07T02:07:54;8.47;;;4.33;;
73599;SDS011;61877;48.246;9.220;2023-09-07T02:10:19;8.50;;;4.10;;
73599;SDS011;61877;48.246;9.220;2023-09-07T02:12:46;9.03;;;3.50;;
73599;SDS011;61877;48.246;9.220;2023-09-07T02:15:12;7.97;;;3.78;;
73599;SDS011;61877;48.246;9.220;2023-09-07T02:17:37;9.03;;;3.90;;
73599;SDS011;61877;48.246;9.220;2023-09-07T02:20:03;8.68;;;3.90;;
73599;SDS011;61877;48.246;9.220;2023-09-07T02:22:29;8.97;;;3.90;;
73599;SDS011;61877;48.246;9.220;2023-09-07T02:24:54;9.15;;;4.35;;
73599;SDS011;61877;48.246;9.220;2023-09-07T02:27:20;8.67;;;4.43;;
73599;SDS011;61877;48.246;9.220;2023-09-07T02:29:47;9.27;;;4.20;;
73599;SDS011;61877;48.246;9.220;2023-09-07T02:32:12;10.70;;;4.50;;
73599;SDS011;61877;48.246;9.220;2023-09-07T02:34:38;8.63;;;4.07;;
73599;SDS011;61877;48.246;9.220;2023-09-07T02:37:03;10.97;;;4.60;;
73599;SDS011;61877;48.246;9.220;2023-09-07T02:39:29;8.60;;;4.00;;
73599;SDS011;61877;48.246;9.220;2023-09-07T02:41:54;9.50;;;3.90;;
73599;SDS011;61877;48.246;9.220;2023-09-07T02:44:19;8.60;;;3.93;;
73599;SDS011;61877;48.246;9.220;2023-09-07T02:46:46;9.13;;;4.07;;
73599;SDS011;61877;48.246;9.220;2023-09-07T02:49:12;8.60;;;3.80;;
73599;SDS011;61877;48.246;9.220;2023-09-07T02:51:37;8.82;;;4.07;;
73599;SDS011;61877;48.246;9.220;2023-09-07T02:54:03;8.50;;;4.07;;
73599;SDS011;61877;48.246;9.220;2023-09-07T02:56:29;8.60;;;4.30;;
73599;SDS011;61877;48.246;9.220;2023-09-07T02:58:55;8.40;;;4.10;;
73599;SDS011;61877;48.246;9.220;2023-09-07T03:01:21;8.57;;;4.45;;
73599;SDS011;61877;48.246;9.220;2023-09-07T03:03:47;8.47;;;4.10;;
73599;SDS011;61877;48.246;9.220;2023-09-07T03:06:13;8.48;;;4.03;;
73599;SDS011;61877;48.246;9.220;2023-09-07T03:08:40;8.77;;;3.80;;
73599;SDS011;61877;48.246;9.220;2023-09-07T03:11:05;9.10;;;4.10;;
73599;SDS011;61877;48.246;9.220;2023-09-07T03:13:32;9.02;;;4.10;;
73599;SDS011;61877;48.246;9.220;2023-09-07T03:15:57;8.73;;;4.30;;
73599;SDS011;61877;48.246;9.220;2023-09-07T03:18:23;12.60;;;4.73;;
73599;SDS011;61877;48.246;9.220;2023-09-07T03:20:50;10.53;;;4.53;;
73599;SDS011;61877;48.246;9.220;2023-09-07T03:23:18;9.93;;;3.97;;
73599;SDS011;61877;48.246;9.220;2023-09-07T03:25:43;8.77;;;4.20;;
73599;SDS011;61877;48.246;9.220;2023-09-07T03:28:09;8.75;;;3.80;;
73599;SDS011;61877;48.246;9.220;2023-09-07T03:30:34;8.60;;;3.97;;
73599;SDS011;61877;48.246;9.220;2023-09-07T03:33:00;8.67;;;4.17;;
73599;SDS011;61877;48.246;9.220;2023-09-07T03:35:25;8.77;;;3.80;;
73599;SDS011;61877;48.246;9.220;2023-09-07T03:37:52;9.20;;;4.13;;
73599;SDS011;61877;48.246;9.220;2023-09-07T03:40:18;10.10;;;4.15;;
73599;SDS011;61877;48.246;9.220;2023-09-07T03:42:43;9.23;;;4.13;;
73599;SDS011;61877;48.246;9.220;2023-09-07T03:45:09;8.67;;;4.17;;
73599;SDS011;61877;48.246;9.220;2023-09-07T03:47:34;8.55;;;4.00;;
73599;SDS011;61877;48.246;9.220;2023-09-07T03:50:00;8.63;;;4.07;;
73599;SDS011;61877;48.246;9.220;2023-09-07T03:52:25;10.40;;;3.90;;
73599;SDS011;61877;48.246;9.220;2023-09-07T03:54:53;9.30;;;4.60;;
73599;SDS011;61877;48.246;9.220;2023-09-07T03:57:19;7.93;;;3.78;;
73599;SDS011;61877;48.246;9.220;2023-09-07T03:59:44;10.50;;;4.60;;
73599;SDS011;61877;48.246;9.220;2023-09-07T04:02:10;8.43;;;4.00;;
73599;SDS011;61877;48.246;9.220;2023-09-07T04:04:35;10.97;;;4.10;;
73599;SDS011;61877;48.246;9.220;2023-09-07T04:07:02;8.85;;;3.78;;
73599;SDS011;61877;48.246;9.220;2023-09-07T04:09:28;8.07;;;3.80;;
73599;SDS011;61877;48.246;9.220;2023-09-07T04:11:55;7.97;;;3.70;;
73599;SDS011;61877;48.246;9.220;2023-09-07T04:14:20;8.77;;;4.22;;
73599;SDS011;61877;48.246;9.220;2023-09-07T04:16:48;10.07;;;3.90;;
73599;SDS011;61877;48.246;9.220;2023-09-07T04:19:13;10.93;;;4.40;;
73599;SDS011;61877;48.246;9.220;2023-09-07T04:21:39;8.27;;;3.93;;
73599;SDS011;61877;48.246;9.220;2023-09-07T04:24:04;9.37;;;3.87;;
73599;SDS011;61877;48.246;9.220;2023-09-07T04:26:30;11.07;;;4.07;;
73599;SDS011;61877;48.246;9.220;2023-09-07T04:28:57;9.47;;;4.33;;
73599;SDS011;61877;48.246;9.220;2023-09-07T04:31:22;8.77;;;4.28;;
73599;SDS011;61877;48.246;9.220;2023-09-07T04:33:48;8.90;;;3.93;;
73599;SDS011;61877;48.246;9.220;2023-09-07T04:36:13;8.93;;;4.20;;
73599;SDS011;61877;48.246;9.220;2023-09-07T04:38:39;8.00;;;3.55;;
73599;SDS011;61877;48.246;9.220;2023-09-07T04:41:06;8.45;;;4.00;;
73599;SDS011;61877;48.246;9.220;2023-09-07T04:43:32;8.63;;;4.10;;
73599;SDS011;61877;48.246;9.220;2023-09-07T04:45:59;8.93;;;4.23;;
73599;SDS011;61877;48.246;9.220;2023-09-07T04:48:24;8.30;;;4.05;;
73599;SDS011;61877;48.246;9.220;2023-09-07T04:50:54;8.80;;;3.97;;
73599;SDS011;61877;48.246;9.220;2023-09-07T04:53:22;9.25;;;4.10;;
73599;SDS011;61877;48.246;9.220;2023-09-07T04:55:48;8.80;;;4.30;;
73599;SDS011;61877;48.246;9.220;2023-09-07T04:58:13;9.50;;;4.30;;
73599;SDS011;61877;48.246;9.220;2023-09-07T05:00:39;10.10;;;4.40;;
73599;SDS011;61877;48.246;9.220;2023-09-07T05:03:05;9.10;;;4.23;;
73599;SDS011;61877;48.246;9.220;2023-09-07T05:05:32;8.65;;;4.47;;
73599;SDS011;61877;48.246;9.220;2023-09-07T05:07:58;9.10;;;4.20;;
73599;SDS011;61877;48.246;9.220;2023-09-07T05:10:23;12.30;;;7.17;;
73599;SDS011;61877;48.246;9.220;2023-09-07T05:12:49;10.52;;;5.80;;
73599;SDS011;61877;48.246;9.220;2023-09-07T05:15:14;9.33;;;4.70;;
73599;SDS011;61877;48.246;9.220;2023-09-07T05:17:40;10.30;;;4.90;;
73599;SDS011;61877;48.246;9.220;2023-09-07T05:20:09;10.45;;;5.03;;
73599;SDS011;61877;48.246;9.220;2023-09-07T05:22:35;10.18;;;4.90;;
73599;SDS011;61877;48.246;9.220;2023-09-07T05:25:00;10.30;;;4.60;;
73599;SDS011;61877;48.246;9.220;2023-09-07T05:27:27;8.70;;;4.03;;
73599;SDS011;61877;48.246;9.220;2023-09-07T05:29:53;9.20;;;4.73;;
73599;SDS011;61877;48.246;9.220;2023-09-07T05:32:18;8.80;;;4.17;;
73599;SDS011;61877;48.246;9.220;2023-09-07T05:34:43;9.23;;;4.22;;
73599;SDS011;61877;48.246;9.220;2023-09-07T05:37:10;9.33;;;4.80;;
73599;SDS011;61877;48.246;9.220;2023-09-07T05:39:35;9.18;;;4.28;;
73599;SDS011;61877;48.246;9.220;2023-09-07T05:42:01;9.47;;;4.70;;
73599;SDS011;61877;48.246;9.220;2023-09-07T05:44:29;8.90;;;4.43;;
73599;SDS011;61877;48.246;9.220;2023-09-07T05:46:55;9.35;;;4.50;;
73599;SDS011;61877;48.246;9.220;2023-09-07T05:49:20;9.00;;;4.50;;
73599;SDS011;61877;48.246;9.220;2023-09-07T05:51:45;8.68;;;4.28;;
73599;SDS011;61877;48.246;9.220;2023-09-07T05:54:12;9.60;;;4.43;;
73599;SDS011;61877;48.246;9.220;2023-09-07T05:56:38;8.40;;;4.40;;
73599;SDS011;61877;48.246;9.220;2023-09-07T05:59:03;10.40;;;4.13;;
73599;SDS011;61877;48.246;9.220;2023-09-07T06:01:29;10.50;;;4.67;;
73599;SDS011;61877;48.246;9.220;2023-09-07T06:03:54;9.18;;;4.30;;
73599;SDS011;61877;48.246;9.220;2023-09-07T06:06:20;11.70;;;4.67;;
73599;SDS011;61877;48.246;9.220;2023-09-07T06:08:46;10.50;;;4.85;;
73599;SDS011;61877;48.246;9.220;2023-09-07T06:11:12;10.73;;;4.87;;
73599;SDS011;61877;48.246;9.220;2023-09-07T06:13:38;10.23;;;4.75;;
73599;SDS011;61877;48.246;9.220;2023-09-07T06:16:03;11.10;;;4.93;;
73599;SDS011;61877;48.246;9.220;2023-09-07T06:18:29;10.13;;;4.70;;
73599;SDS011;61877;48.246;9.220;2023-09-07T06:20:55;11.45;;;5.22;;
73599;SDS011;61877;48.246;9.220;2023-09-07T06:23:20;10.03;;;4.90;;
73599;SDS011;61877;48.246;9.220;2023-09-07T06:25:46;9.48;;;4.40;;
73599;SDS011;61877;48.246;9.220;2023-09-07T06:28:13;11.27;;;5.37;;
73599;SDS011;61877;48.246;9.220;2023-09-07T06:30:38;9.40;;;4.60;;
73599;SDS011;61877;48.246;9.220;2023-09-07T06:33:04;11.53;;;4.83;;
73599;SDS011;61877;48.246;9.220;2023-09-07T06:35:32;9.85;;;5.28;;
73599;SDS011;61877;48.246;9.220;2023-09-07T06:38:00;9.65;;;4.63;;
73599;SDS011;61877;48.246;9.220;2023-09-07T06:40:25;10.57;;;4.77;;
73599;SDS011;61877;48.246;9.220;2023-09-07T06:42:55;9.30;;;4.80;;
73599;SDS011;61877;48.246;9.220;2023-09-07T06:45:22;11.50;;;4.70;;
73599;SDS011;61877;48.246;9.220;2023-09-07T06:47:49;9.63;;;4.68;;
73599;SDS011;61877;48.246;9.220;2023-09-07T06:50:16;11.32;;;5.70;;
73599;SDS011;61877;48.246;9.220;2023-09-07T06:52:42;11.35;;;5.32;;
73599;SDS011;61877;48.246;9.220;2023-09-07T06:55:07;11.87;;;5.60;;
73599;SDS011;61877;48.246;9.220;2023-09-07T06:57:33;9.90;;;4.88;;
73599;SDS011;61877;48.246;9.220;2023-09-07T07:00:01;9.52;;;5.25;;
73599;SDS011;61877;48.246;9.220;2023-09-07T07:02:42;10.45;;;5.40;;
73599;SDS011;61877;48.246;9.220;2023-09-07T07:05:08;10.50;;;5.60;;
73599;SDS011;61877;48.246;9.220;2023-09-07T07:07:36;9.43;;;5.22;;
73599;SDS011;61877;48.246;9.220;2023-09-07T07:10:02;11.48;;;5.40;;
73599;SDS011;61877;48.246;9.220;2023-09-07T07:12:30;10.37;;;5.20;;
73599;SDS011;61877;48.246;9.220;2023-09-07T07:17:47;12.77;;;5.40;;
73599;SDS011;61877;48.246;9.220;2023-09-07T07:23:12;9.73;;;5.30;;
73599;SDS011;61877;48.246;9.220;2023-09-07T07:25:38;9.63;;;4.70;;
73599;SDS011;61877;48.246;9.220;2023-09-07T07:28:03;10.50;;;5.60;;
73599;SDS011;61877;48.246;9.220;2023-09-07T07:30:31;10.63;;;5.25;;
73599;SDS011;61877;48.246;9.220;2023-09-07T07:32:58;10.77;;;5.57;;
73599;SDS011;61877;48.246;9.220;2023-09-07T07:35:24;11.80;;;5.50;;
73599;SDS011;61877;48.246;9.220;2023-09-07T07:37:52;10.10;;;6.20;;
73599;SDS011;61877;48.246;9.220;2023-09-07T07:40:18;12.53;;;6.20;;
73599;SDS011;61877;48.246;9.220;2023-09-07T07:42:43;10.02;;;5.70;;
73599;SDS011;61877;48.246;9.220;2023-09-07T07:45:09;10.23;;;5.70;;
73599;SDS011;61877;48.246;9.220;2023-09-07T07:47:35;10.45;;;6.10;;
73599;SDS011;61877;48.246;9.220;2023-09-07T07:50:02;11.13;;;6.50;;
73599;SDS011;61877;48.246;9.220;2023-09-07T07:52:27;12.48;;;7.30;;
73599;SDS011;61877;48.246;9.220;2023-09-07T07:54:58;12.30;;;6.57;;
73599;SDS011;61877;48.246;9.220;2023-09-07T07:57:23;10.70;;;6.50;;
73599;SDS011;61877;48.246;9.220;2023-09-07T07:59:49;11.55;;;6.30;;
73599;SDS011;61877;48.246;9.220;2023-09-07T08:02:14;12.57;;;6.90;;
73599;SDS011;61877;48.246;9.220;2023-09-07T08:04:40;12.63;;;7.20;;
73599;SDS011;61877;48.246;9.220;2023-09-07T08:07:07;11.77;;;6.63;;
73599;SDS011;61877;48.246;9.220;2023-09-07T08:09:33;11.88;;;6.50;;
73599;SDS011;61877;48.246;9.220;2023-09-07T08:12:02;11.47;;;7.30;;
73599;SDS011;61877;48.246;9.220;2023-09-07T08:14:28;12.00;;;7.03;;
73599;SDS011;61877;48.246;9.220;2023-09-07T08:16:55;12.43;;;7.55;;
73599;SDS011;61877;48.246;9.220;2023-09-07T08:19:21;11.23;;;6.70;;
73599;SDS011;61877;48.246;9.220;2023-09-07T08:21:46;13.83;;;6.80;;
73599;SDS011;61877;48.246;9.220;2023-09-07T08:24:13;10.70;;;6.50;;
73599;SDS011;61877;48.246;9.220;2023-09-07T08:26:39;14.00;;;7.80;;
73599;SDS011;61877;48.246;9.220;2023-09-07T08:29:07;11.35;;;6.60;;
73599;SDS011;61877;48.246;9.220;2023-09-07T08:31:33;10.90;;;6.60;;
73599;SDS011;61877;48.246;9.220;2023-09-07T08:34:03;11.93;;;6.87;;
73599;SDS011;61877;48.246;9.220;2023-09-07T08:36:32;11.65;;;6.70;;
73599;SDS011;61877;48.246;9.220;2023-09-07T08:39:00;12.18;;;6.70;;
73599;SDS011;61877;48.246;9.220;2023-09-07T08:41:27;12.90;;;7.37;;
73599;SDS011;61877;48.246;9.220;2023-09-07T08:43:54;11.15;;;6.78;;
73599;SDS011;61877;48.246;9.220;2023-09-07T08:46:22;11.35;;;6.72;;
73599;SDS011;61877;48.246;9.220;2023-09-07T08:48:48;12.80;;;6.50;;
73599;SDS011;61877;48.246;9.220;2023-09-07T08:51:16;10.80;;;6.73;;
73599;SDS011;61877;48.246;9.220;2023-09-07T08:53:43;10.95;;;6.55;;
73599;SDS011;61877;48.246;9.220;2023-09-07T08:56:14;11.75;;;7.00;;
73599;SDS011;61877;48.246;9.220;2023-09-07T08:58:42;12.00;;;7.47;;
73599;SDS011;61877;48.246;9.220;2023-09-07T09:01:08;11.05;;;6.38;;
73599;SDS011;61877;48.246;9.220;2023-09-07T09:03:34;11.10;;;6.90;;
73599;SDS011;61877;48.246;9.220;2023-09-07T09:05:59;11.93;;;6.67;;
73599;SDS011;61877;48.246;9.220;2023-09-07T09:08:25;12.75;;;6.63;;
73599;SDS011;61877;48.246;9.220;2023-09-07T09:11:05;10.33;;;6.47;;
73599;SDS011;61877;48.246;9.220;2023-09-07T09:13:31;11.23;;;6.15;;
73599;SDS011;61877;48.246;9.220;2023-09-07T09:16:00;11.40;;;7.10;;
73599;SDS011;61877;48.246;9.220;2023-09-07T09:18:25;11.73;;;7.13;;
73599;SDS011;61877;48.246;9.220;2023-09-07T09:20:51;10.37;;;6.30;;
73599;SDS011;61877;48.246;9.220;2023-09-07T09:23:17;10.63;;;6.90;;
73599;SDS011;61877;48.246;9.220;2023-09-07T09:25:43;9.90;;;6.30;;
73599;SDS011;61877;48.246;9.220;2023-09-07T09:28:09;11.35;;;6.65;;
73599;SDS011;61877;48.246;9.220;2023-09-07T09:30:36;12.07;;;6.57;;
73599;SDS011;61877;48.246;9.220;2023-09-07T09:33:04;10.50;;;6.38;;
73599;SDS011;61877;48.246;9.220;2023-09-07T09:35:30;10.00;;;6.38;;
73599;SDS011;61877;48.246;9.220;2023-09-07T09:37:56;10.60;;;6.60;;
73599;SDS011;61877;48.246;9.220;2023-09-07T09:40:26;11.50;;;6.45;;
73599;SDS011;61877;48.246;9.220;2023-09-07T09:42:52;11.02;;;6.60;;
73599;SDS011;61877;48.246;9.220;2023-09-07T09:45:21;11.02;;;6.28;;
73599;SDS011;61877;48.246;9.220;2023-09-07T09:47:46;12.00;;;6.57;;
73599;SDS011;61877;48.246;9.220;2023-09-07T09:50:16;10.90;;;6.45;;
73599;SDS011;61877;48.246;9.220;2023-09-07T09:52:44;10.32;;;6.50;;
73599;SDS011;61877;48.246;9.220;2023-09-07T09:55:11;11.00;;;6.65;;
73599;SDS011;61877;48.246;9.220;2023-09-07T09:57:37;11.87;;;6.37;;
73599;SDS011;61877;48.246;9.220;2023-09-07T10:00:03;13.13;;;6.60;;
73599;SDS011;61877;48.246;9.220;2023-09-07T10:02:31;10.13;;;6.93;;
73599;SDS011;61877;48.246;9.220;2023-09-07T10:04:56;11.15;;;6.82;;
73599;SDS011;61877;48.246;9.220;2023-09-07T10:07:39;11.23;;;6.93;;
73599;SDS011;61877;48.246;9.220;2023-09-07T10:10:08;10.45;;;6.50;;
73599;SDS011;61877;48.246;9.220;2023-09-07T10:12:39;10.15;;;6.55;;
73599;SDS011;61877;48.246;9.220;2023-09-07T10:15:22;11.00;;;6.55;;
73599;SDS011;61877;48.246;9.220;2023-09-07T10:17:49;10.33;;;6.53;;
73599;SDS011;61877;48.246;9.220;2023-09-07T10:20:27;10.95;;;6.60;;
73599;SDS011;61877;48.246;9.220;2023-09-07T10:23:02;10.73;;;6.40;;
73599;SDS011;61877;48.246;9.220;2023-09-07T10:25:29;9.87;;;6.33;;
73599;SDS011;61877;48.246;9.220;2023-09-07T10:27:56;11.40;;;6.60;;
73599;SDS011;61877;48.246;9.220;2023-09-07T10:30:22;9.73;;;6.53;;
73599;SDS011;61877;48.246;9.220;2023-09-07T10:32:48;11.27;;;6.45;;
73599;SDS011;61877;48.246;9.220;2023-09-07T10:35:14;12.37;;;7.50;;
73599;SDS011;61877;48.246;9.220;2023-09-07T10:37:40;10.82;;;6.93;;
73599;SDS011;61877;48.246;9.220;2023-09-07T10:40:12;9.85;;;6.47;;
73599;SDS011;61877;48.246;9.220;2023-09-07T10:42:38;9.85;;;6.60;;
73599;SDS011;61877;48.246;9.220;2023-09-07T10:45:12;9.50;;;6.40;;
73599;SDS011;61877;48.246;9.220;2023-09-07T10:47:43;10.07;;;6.50;;
73599;SDS011;61877;48.246;9.220;2023-09-07T10:50:20;10.88;;;6.50;;
73599;SDS011;61877;48.246;9.220;2023-09-07T10:58:27;10.45;;;6.43;;
73599;SDS011;61877;48.246;9.220;2023-09-07T11:01:09;10.00;;;6.65;;
73599;SDS011;61877;48.246;9.220;2023-09-07T11:06:28;9.52;;;6.90;;
73599;SDS011;61877;48.246;9.220;2023-09-07T11:08:54;9.93;;;6.40;;
73599;SDS011;61877;48.246;9.220;2023-09-07T11:11:21;10.17;;;6.63;;
73599;SDS011;61877;48.246;9.220;2023-09-07T11:13:47;10.57;;;6.82;;
73599;SDS011;61877;48.246;9.220;2023-09-07T11:16:13;10.48;;;7.00;;
73599;SDS011;61877;48.246;9.220;2023-09-07T11:18:39;9.85;;;6.88;;
73599;SDS011;61877;48.246;9.220;2023-09-07T11:21:05;9.93;;;6.40;;
73599;SDS011;61877;48.246;9.220;2023-09-07T11:23:31;9.60;;;6.78;;
73599;SDS011;61877;48.246;9.220;2023-09-07T11:25:58;9.53;;;6.50;;
73599;SDS011;61877;48.246;9.220;2023-09-07T11:28:29;12.90;;;6.40;;
73599;SDS011;61877;48.246;9.220;2023-09-07T11:30:55;9.90;;;6.70;;
73599;SDS011;61877;48.246;9.220;2023-09-07T11:33:24;9.50;;;6.43;;
73599;SDS011;61877;48.246;9.220;2023-09-07T11:35:50;10.87;;;7.10;;
73599;SDS011;61877;48.246;9.220;2023-09-07T11:38:16;10.35;;;7.10;;
73599;SDS011;61877;48.246;9.220;2023-09-07T11:40:43;11.43;;;6.90;;
73599;SDS011;61877;48.246;9.220;2023-09-07T11:43:10;9.20;;;6.38;;
73599;SDS011;61877;48.246;9.220;2023-09-07T11:45:37;9.63;;;6.57;;
73599;SDS011;61877;48.246;9.220;2023-09-07T11:48:04;12.53;;;6.70;;
73599;SDS011;61877;48.246;9.220;2023-09-07T11:50:30;9.52;;;6.22;;
73599;SDS011;61877;48.246;9.220;2023-09-07T11:52:56;10.97;;;6.73;;
73599;SDS011;61877;48.246;9.220;2023-09-07T11:55:21;11.43;;;6.28;;
73599;SDS011;61877;48.246;9.220;2023-09-07T11:57:47;9.83;;;6.60;;
73599;SDS011;61877;48.246;9.220;2023-09-07T12:00:13;10.30;;;6.47;;
73599;SDS011;61877;48.246;9.220;2023-09-07T12:02:42;9.27;;;6.07;;
73599;SDS011;61877;48.246;9.220;2023-09-07T12:05:19;9.95;;;6.20;;
73599;SDS011;61877;48.246;9.220;2023-09-07T12:07:47;10.75;;;6.28;;
73599;SDS011;61877;48.246;9.220;2023-09-07T12:10:16;10.65;;;6.70;;
73599;SDS011;61877;48.246;9.220;2023-09-07T12:12:41;9.90;;;6.40;;
73599;SDS011;61877;48.246;9.220;2023-09-07T12:15:16;9.27;;;6.10;;
73599;SDS011;61877;48.246;9.220;2023-09-07T12:17:43;9.20;;;6.38;;
73599;SDS011;61877;48.246;9.220;2023-09-07T12:20:12;9.97;;;6.67;;
73599;SDS011;61877;48.246;9.220;2023-09-07T12:22:46;10.07;;;6.78;;
73599;SDS011;61877;48.246;9.220;2023-09-07T12:25:13;10.90;;;6.82;;
73599;SDS011;61877;48.246;9.220;2023-09-07T12:27:39;9.57;;;6.20;;
73599;SDS011;61877;48.246;9.220;2023-09-07T12:30:05;11.00;;;6.78;;
73599;SDS011;61877;48.246;9.220;2023-09-07T12:32:31;9.40;;;6.43;;
73599;SDS011;61877;48.246;9.220;2023-09-07T12:34:58;11.05;;;6.43;;
73599;SDS011;61877;48.246;9.220;2023-09-07T12:37:24;9.80;;;6.53;;
73599;SDS011;61877;48.246;9.220;2023-09-07T12:39:51;11.45;;;6.57;;
73599;SDS011;61877;48.246;9.220;2023-09-07T12:42:19;10.90;;;6.73;;
73599;SDS011;61877;48.246;9.220;2023-09-07T12:44:45;10.77;;;6.60;;
73599;SDS011;61877;48.246;9.220;2023-09-07T12:47:10;11.68;;;6.93;;
73599;SDS011;61877;48.246;9.220;2023-09-07T12:49:35;9.90;;;6.93;;
73599;SDS011;61877;48.246;9.220;2023-09-07T12:52:02;10.07;;;6.83;;
73599;SDS011;61877;48.246;9.220;2023-09-07T12:54:31;9.68;;;6.93;;
73599;SDS011;61877;48.246;9.220;2023-09-07T12:56:57;10.30;;;6.80;;
73599;SDS011;61877;48.246;9.220;2023-09-07T12:59:22;10.13;;;6.77;;
73599;SDS011;61877;48.246;9.220;2023-09-07T13:01:54;9.05;;;6.40;;
73599;SDS011;61877;48.246;9.220;2023-09-07T13:04:27;10.25;;;6.55;;
73599;SDS011;61877;48.246;9.220;2023-09-07T13:06:55;11.10;;;6.53;;
73599;SDS011;61877;48.246;9.220;2023-09-07T13:09:24;11.30;;;6.80;;
73599;SDS011;61877;48.246;9.220;2023-09-07T13:12:08;11.13;;;6.70;;
73599;SDS011;61877;48.246;9.220;2023-09-07T13:14:34;10.77;;;6.80;;
73599;SDS011;61877;48.246;9.220;2023-09-07T13:16:59;12.87;;;6.77;;
73599;SDS011;61877;48.246;9.220;2023-09-07T13:19:24;9.87;;;6.90;;
73599;SDS011;61877;48.246;9.220;2023-09-07T13:21:53;10.05;;;6.30;;
73599;SDS011;61877;48.246;9.220;2023-09-07T13:24:18;9.97;;;6.20;;
73599;SDS011;61877;48.246;9.220;2023-09-07T13:26:47;10.10;;;7.10;;
73599;SDS011;61877;48.246;9.220;2023-09-07T13:29:15;10.93;;;6.50;;
73599;SDS011;61877;48.246;9.220;2023-09-07T13:31:40;11.63;;;6.75;;
73599;SDS011;61877;48.246;9.220;2023-09-07T13:34:06;10.23;;;6.97;;
73599;SDS011;61877;48.246;9.220;2023-09-07T13:36:32;11.60;;;6.80;;
73599;SDS011;61877;48.246;9.220;2023-09-07T13:38:58;11.63;;;6.97;;
73599;SDS011;61877;48.246;9.220;2023-09-07T13:41:24;10.00;;;6.43;;
73599;SDS011;61877;48.246;9.220;2023-09-07T13:43:50;12.10;;;6.72;;
73599;SDS011;61877;48.246;9.220;2023-09-07T13:46:18;10.50;;;6.40;;
73599;SDS011;61877;48.246;9.220;2023-09-07T13:48:46;9.63;;;6.75;;
73599;SDS011;61877;48.246;9.220;2023-09-07T13:51:12;10.00;;;6.57;;
73599;SDS011;61877;48.246;9.220;2023-09-07T13:53:38;10.67;;;6.43;;
73599;SDS011;61877;48.246;9.220;2023-09-07T13:56:03;10.27;;;6.53;;
73599;SDS011;61877;48.246;9.220;2023-09-07T13:58:29;9.40;;;6.10;;
73599;SDS011;61877;48.246;9.220;2023-09-07T14:00:58;9.85;;;6.18;;
73599;SDS011;61877;48.246;9.220;2023-09-07T14:03:24;10.20;;;6.40;;
73599;SDS011;61877;48.246;9.220;2023-09-07T14:05:59;10.50;;;6.65;;
73599;SDS011;61877;48.246;9.220;2023-09-07T14:08:27;13.35;;;6.75;;
73599;SDS011;61877;48.246;9.220;2023-09-07T14:10:56;10.00;;;6.80;;
73599;SDS011;61877;48.246;9.220;2023-09-07T14:13:23;10.75;;;6.72;;
73599;SDS011;61877;48.246;9.220;2023-09-07T14:15:54;11.27;;;6.72;;
73599;SDS011;61877;48.246;9.220;2023-09-07T14:18:51;10.75;;;6.30;;
73599;SDS011;61877;48.246;9.220;2023-09-07T14:21:16;10.20;;;7.00;;
73599;SDS011;61877;48.246;9.220;2023-09-07T14:23:45;9.45;;;6.65;;
73599;SDS011;61877;48.246;9.220;2023-09-07T14:26:10;12.27;;;6.93;;
73599;SDS011;61877;48.246;9.220;2023-09-07T14:28:36;11.07;;;6.50;;
73599;SDS011;61877;48.246;9.220;2023-09-07T14:31:02;12.10;;;7.03;;
73599;SDS011;61877;48.246;9.220;2023-09-07T14:33:29;9.73;;;7.07;;
73599;SDS011;61877;48.246;9.220;2023-09-07T14:35:55;11.60;;;6.93;;
73599;SDS011;61877;48.246;9.220;2023-09-07T14:38:20;9.77;;;7.50;;
73599;SDS011;61877;48.246;9.220;2023-09-07T14:40:46;10.50;;;7.60;;
73599;SDS011;61877;48.246;9.220;2023-09-07T14:43:15;10.32;;;7.68;;
73599;SDS011;61877;48.246;9.220;2023-09-07T14:45:42;11.30;;;7.47;;
73599;SDS011;61877;48.246;9.220;2023-09-07T14:48:08;10.05;;;7.00;;
73599;SDS011;61877;48.246;9.220;2023-09-07T14:50:35;15.30;;;8.03;;
73599;SDS011;61877;48.246;9.220;2023-09-07T14:53:03;13.63;;;7.88;;